createdAt,value
2024-02-19T00:01:47.522Z,101309.34
2024-02-19T00:04:16.224Z,101314.97
2024-02-19T00:06:43.671Z,101306.66
2024-02-19T00:09:11.072Z,101305.28
2024-02-19T00:11:39.021Z,101297.97
2024-02-19T00:14:06.462Z,101299.56
2024-02-19T00:16:33.776Z,101306.97
2024-02-19T00:19:01.202Z,101305.88
2024-02-19T00:21:28.535Z,101301.88
2024-02-19T00:23:55.856Z,101310.38
2024-02-19T00:26:23.131Z,101300.53
2024-02-19T00:28:50.538Z,101296.22
2024-02-19T00:31:17.925Z,101306.31
2024-02-19T00:33:45.375Z,101309.75
2024-02-19T00:36:12.767Z,101292.69
2024-02-19T00:38:40.109Z,101299.59
2024-02-19T00:41:07.427Z,101306.50
2024-02-19T00:43:34.752Z,101303.81
2024-02-19T00:46:02.117Z,101303.53
2024-02-19T00:48:29.547Z,101290.16
2024-02-19T00:50:56.913Z,101277.84
2024-02-19T00:53:24.254Z,101285.38
2024-02-19T00:55:53.892Z,101288.50
2024-02-19T00:58:21.550Z,101285.25
2024-02-19T01:00:49.213Z,101272.44
2024-02-19T01:03:18.252Z,101277.50
2024-02-19T01:05:45.802Z,101269.78
2024-02-19T01:08:13.135Z,101273.75
2024-02-19T01:10:40.444Z,101272.44
2024-02-19T01:13:07.837Z,101259.69
2024-02-19T01:15:35.184Z,101267.63
2024-02-19T01:18:02.602Z,101260.13
2024-02-19T01:20:29.904Z,101251.88
2024-02-19T01:22:59.055Z,101259.03
2024-02-19T01:25:26.498Z,101255.84
2024-02-19T01:27:53.928Z,101252.88
2024-02-19T01:30:23.894Z,101258.97
2024-02-19T01:32:51.646Z,101252.00
2024-02-19T01:35:19.006Z,101249.06
2024-02-19T01:37:47.290Z,101242.84
2024-02-19T01:40:14.784Z,101235.38
2024-02-19T01:42:42.523Z,101229.50
2024-02-19T01:45:26.409Z,101230.91
2024-02-19T01:47:57.406Z,101234.91
2024-02-19T01:50:25.046Z,101229.59
2024-02-19T01:52:52.709Z,101225.38
2024-02-19T01:55:20.336Z,101230.19
2024-02-19T01:57:48.235Z,101217.44
2024-02-19T02:00:17.937Z,101215.28
2024-02-19T02:02:45.464Z,101218.44
2024-02-19T02:05:14.213Z,101208.25
2024-02-19T02:07:42.645Z,101204.97
2024-02-19T02:10:10.165Z,101205.75
2024-02-19T02:12:37.631Z,101209.16
2024-02-19T02:15:05.369Z,101204.56
2024-02-19T02:17:32.765Z,101191.97
2024-02-19T02:20:00.357Z,101196.00
2024-02-19T02:22:27.922Z,101192.38
2024-02-19T02:24:56.393Z,101194.28
2024-02-19T02:27:23.783Z,101197.41
2024-02-19T02:29:51.061Z,101202.47
2024-02-19T02:32:18.434Z,101200.25
2024-02-19T02:34:45.738Z,101202.88
2024-02-19T02:37:13.866Z,101204.16
2024-02-19T02:39:41.781Z,101206.53
2024-02-19T02:42:09.136Z,101194.22
2024-02-19T02:44:36.409Z,101204.53
2024-02-19T02:47:04.517Z,101198.13
2024-02-19T02:49:31.978Z,101194.94
2024-02-19T02:51:59.336Z,101190.66
2024-02-19T02:54:26.669Z,101191.13
2024-02-19T02:56:53.942Z,101188.72
2024-02-19T02:59:21.333Z,101190.84
2024-02-19T03:01:49.388Z,101191.88
2024-02-19T03:04:17.764Z,101187.13
2024-02-19T03:06:45.347Z,101183.91
2024-02-19T03:09:12.754Z,101183.13
2024-02-19T03:11:40.052Z,101192.13
2024-02-19T03:14:07.931Z,101181.69
2024-02-19T03:16:35.542Z,101183.91
2024-02-19T03:19:06.457Z,101182.88
2024-02-19T03:21:33.894Z,101191.94
2024-02-19T03:24:01.177Z,101191.13
2024-02-19T03:28:59.163Z,101188.47
2024-02-19T03:31:26.472Z,101185.78
2024-02-19T03:33:53.957Z,101182.00
2024-02-19T03:36:21.366Z,101188.13
2024-02-19T03:38:48.618Z,101184.91
2024-02-19T03:41:15.872Z,101182.81
2024-02-19T03:43:43.175Z,101181.25
2024-02-19T03:46:10.594Z,101184.59
2024-02-19T03:48:38.498Z,101191.06
2024-02-19T03:51:05.890Z,101190.56
2024-02-19T03:53:33.160Z,101179.53
2024-02-19T03:56:01.258Z,101176.91
2024-02-19T03:58:28.573Z,101179.63
2024-02-19T04:00:56.123Z,101177.56
2024-02-19T04:03:23.496Z,101188.28
2024-02-19T04:05:50.843Z,101174.13
2024-02-19T04:08:18.316Z,101171.75
2024-02-19T04:10:45.646Z,101167.25
2024-02-19T04:13:13.018Z,101167.25
2024-02-19T04:15:40.347Z,101161.75
2024-02-19T04:18:07.754Z,101159.03
2024-02-19T04:20:35.094Z,101156.81
2024-02-19T04:23:02.397Z,101140.38
2024-02-19T04:25:29.767Z,101154.31
2024-02-19T04:27:57.118Z,101147.41
2024-02-19T04:30:24.509Z,101137.81
2024-02-19T04:32:51.837Z,101135.09
2024-02-19T04:35:19.879Z,101133.78
2024-02-19T04:37:47.191Z,101127.63
2024-02-19T04:40:15.120Z,101126.53
2024-02-19T04:42:42.503Z,101121.72
2024-02-19T04:45:09.940Z,101119.06
2024-02-19T04:47:37.337Z,101111.53
2024-02-19T04:50:05.187Z,101114.19
2024-02-19T04:52:32.636Z,101120.56
2024-02-19T04:54:59.992Z,101113.03
2024-02-19T04:57:27.276Z,101104.44
2024-02-19T04:59:54.571Z,101102.03
2024-02-19T05:02:21.877Z,101100.09
2024-02-19T05:04:49.360Z,101101.69
2024-02-19T05:07:17.062Z,101102.72
2024-02-19T05:09:44.871Z,101103.56
2024-02-19T05:12:12.133Z,101097.69
2024-02-19T05:14:39.406Z,101102.78
2024-02-19T05:17:06.663Z,101093.44
2024-02-19T05:19:34.103Z,101088.91
2024-02-19T05:22:01.955Z,101083.56
2024-02-19T05:24:29.391Z,101082.31
2024-02-19T05:26:56.684Z,101081.31
2024-02-19T05:29:25.197Z,101076.00
2024-02-19T05:31:55.611Z,101088.25
2024-02-19T05:34:23.032Z,101074.09
2024-02-19T05:36:50.401Z,101089.31
2024-02-19T05:39:17.781Z,101086.91
2024-02-19T05:41:45.077Z,101094.38
2024-02-19T05:44:12.483Z,101092.81
2024-02-19T05:46:39.784Z,101102.94
2024-02-19T05:49:07.126Z,101101.91
2024-02-19T05:51:34.525Z,101094.69
2024-02-19T05:54:01.807Z,101096.59
2024-02-19T05:56:30.303Z,101104.63
2024-02-19T05:58:57.715Z,101101.72
2024-02-19T06:01:25.294Z,101104.94
2024-02-19T06:03:52.655Z,101110.56
2024-02-19T06:06:19.976Z,101114.81
2024-02-19T06:08:47.253Z,101101.25
2024-02-19T06:11:14.616Z,101119.16
2024-02-19T06:13:41.924Z,101119.72
2024-02-19T06:16:09.323Z,101103.19
2024-02-19T06:18:36.798Z,101112.03
2024-02-19T06:21:04.319Z,101109.16
2024-02-19T06:23:31.581Z,101101.97
2024-02-19T06:25:59.473Z,101104.88
2024-02-19T06:28:26.824Z,101108.06
2024-02-19T06:30:54.379Z,101100.38
2024-02-19T06:33:21.751Z,101107.00
2024-02-19T06:35:50.311Z,101105.94
2024-02-19T06:38:17.671Z,101104.88
2024-02-19T06:40:44.926Z,101105.44
2024-02-19T06:43:12.210Z,101105.44
2024-02-19T06:45:39.689Z,101095.03
2024-02-19T06:48:07.287Z,101096.34
2024-02-19T06:50:34.720Z,101093.66
2024-02-19T06:53:02.072Z,101093.66
2024-02-19T06:55:29.469Z,101095.78
2024-02-19T06:57:57.088Z,101087.25
2024-02-19T07:00:26.697Z,101086.75
2024-02-19T07:02:54.064Z,101097.94
2024-02-19T07:05:21.633Z,101086.19
2024-02-19T07:07:49.067Z,101076.09
2024-02-19T07:10:16.561Z,101080.31
2024-02-19T07:12:43.943Z,101078.19
2024-02-19T07:15:11.338Z,101071.78
2024-02-19T07:17:38.647Z,101065.91
2024-02-19T07:20:06.524Z,101078.69
2024-02-19T07:22:33.978Z,101077.13
2024-02-19T07:25:10.189Z,101074.72
2024-02-19T07:27:44.431Z,101079.28
2024-02-19T07:30:13.649Z,101073.41
2024-02-19T07:32:41.071Z,101083.56
2024-02-19T07:35:08.654Z,101088.88
2024-02-19T07:37:36.141Z,101069.72
2024-02-19T07:40:08.650Z,101078.81
2024-02-19T07:42:36.146Z,101069.19
2024-02-19T07:45:06.649Z,101077.72
2024-02-19T07:47:34.374Z,101074.53
2024-02-19T07:50:01.963Z,101073.50
2024-02-19T07:52:29.383Z,101078.28
2024-02-19T07:54:56.868Z,101075.38
2024-02-19T07:57:24.206Z,101071.88
2024-02-19T07:59:51.506Z,101083.91
2024-02-19T08:02:19.081Z,101079.88
2024-02-19T08:04:46.530Z,101072.94
2024-02-19T08:07:13.979Z,101070.81
2024-02-19T08:09:41.385Z,101072.41
2024-02-19T08:12:09.789Z,101071.88
2024-02-19T08:14:37.160Z,101079.09
2024-02-19T08:17:04.788Z,101061.22
2024-02-19T08:19:32.212Z,101069.75
2024-02-19T08:22:00.057Z,101059.34
2024-02-19T08:24:27.395Z,101055.34
2024-02-19T08:26:54.690Z,101039.56
2024-02-19T08:29:22.033Z,101047.00
2024-02-19T08:31:49.429Z,101046.72
2024-02-19T08:34:18.110Z,101052.56
2024-02-19T08:36:45.678Z,101054.22
2024-02-19T08:39:13.007Z,101057.97
2024-02-19T08:41:40.295Z,101045.41
2024-02-19T08:44:07.580Z,101052.63
2024-02-19T08:46:34.934Z,101056.91
2024-02-19T08:49:02.312Z,101043.56
2024-02-19T08:51:30.659Z,101034.50
2024-02-19T08:54:00.051Z,101037.72
2024-02-19T08:56:27.731Z,101038.25
2024-02-19T08:58:55.033Z,101039.31
2024-02-19T09:01:22.583Z,101031.03
2024-02-19T09:03:50.147Z,101039.84
2024-02-19T09:06:18.108Z,101047.84
2024-02-19T09:08:45.474Z,101036.66
2024-02-19T09:11:12.784Z,101041.44
2024-02-19T09:13:40.108Z,101032.34
2024-02-19T09:16:07.625Z,101034.47
2024-02-19T09:18:35.198Z,101034.16
2024-02-19T09:21:02.640Z,101026.94
2024-02-19T09:23:31.533Z,101035.75
2024-02-19T09:25:59.202Z,101041.06
2024-02-19T09:28:26.645Z,101036.00
2024-02-19T09:30:54.787Z,101030.06
2024-02-19T09:33:22.407Z,101034.59
2024-02-19T09:35:49.735Z,101035.38
2024-02-19T09:38:17.189Z,101030.56
2024-02-19T09:40:48.587Z,101027.88
2024-02-19T09:43:16.489Z,101035.91
2024-02-19T09:45:44.696Z,101027.28
2024-02-19T09:48:12.292Z,101026.69
2024-02-19T09:50:48.434Z,101018.03
2024-02-19T09:53:28.610Z,101019.06
2024-02-19T09:55:57.158Z,101019.34
2024-02-19T09:58:24.799Z,101021.81
2024-02-19T10:00:52.347Z,101016.41
2024-02-19T10:03:20.090Z,101015.81
2024-02-19T10:05:48.957Z,100999.50
2024-02-19T10:08:17.605Z,101024.19
2024-02-19T10:10:46.532Z,101020.38
2024-02-19T10:13:14.831Z,101010.50
2024-02-19T10:15:42.498Z,101006.94
2024-02-19T10:18:16.958Z,101003.97
2024-02-19T10:20:52.072Z,100980.19
2024-02-19T10:23:22.634Z,100994.44
2024-02-19T10:25:50.827Z,100987.84
2024-02-19T10:28:22.662Z,100988.06
2024-02-19T10:30:50.305Z,100990.75
2024-02-19T10:33:17.725Z,100986.91
2024-02-19T10:35:45.476Z,100980.19
2024-02-19T10:38:13.214Z,100977.50
2024-02-19T10:40:40.555Z,100980.69
2024-02-19T10:43:07.857Z,100978.69
2024-02-19T10:45:35.617Z,100958.00
2024-02-19T10:48:03.004Z,100975.06
2024-02-19T10:50:33.726Z,100963.00
2024-02-19T10:53:01.225Z,100963.72
2024-02-19T10:55:36.554Z,100951.16
2024-02-19T10:58:16.419Z,100957.31
2024-02-19T11:00:44.341Z,100942.41
2024-02-19T11:03:14.827Z,100935.09
2024-02-19T11:05:44.070Z,100928.44
2024-02-19T11:08:21.293Z,100929.41
2024-02-19T11:10:51.511Z,100921.00
2024-02-19T11:13:28.647Z,100920.75
2024-02-19T11:15:56.647Z,100918.25
2024-02-19T11:18:24.270Z,100907.56
2024-02-19T11:20:51.919Z,100898.06
2024-02-19T11:23:20.215Z,100903.28
2024-02-19T11:25:47.867Z,100895.03
2024-02-19T11:28:15.279Z,100890.59
2024-02-19T11:30:42.725Z,100887.84
2024-02-19T11:33:10.882Z,100884.66
2024-02-19T11:35:39.095Z,100878.31
2024-02-19T11:38:06.518Z,100872.84
2024-02-19T11:40:34.390Z,100869.38
2024-02-19T11:43:05.189Z,100866.00
2024-02-19T11:45:32.955Z,100858.34
2024-02-19T11:48:00.435Z,100847.50
2024-02-19T11:50:31.198Z,100850.38
2024-02-19T11:53:01.905Z,100843.91
2024-02-19T11:55:31.431Z,100838.50
2024-02-19T11:58:03.054Z,100826.31
2024-02-19T12:00:32.162Z,100816.97
2024-02-19T12:03:00.354Z,100821.75
2024-02-19T12:05:28.158Z,100823.88
2024-02-19T12:07:57.416Z,100818.81
2024-02-19T12:10:24.942Z,100817.22
2024-02-19T12:12:52.878Z,100815.16
2024-02-19T12:15:20.767Z,100815.56
2024-02-19T12:17:53.179Z,100810.47
2024-02-19T12:20:21.071Z,100810.47
2024-02-19T12:22:49.169Z,100809.25
2024-02-19T12:25:16.617Z,100802.41
2024-02-19T12:27:44.275Z,100810.13
2024-02-19T12:30:11.712Z,100808.16
2024-02-19T12:32:40.475Z,100794.59
2024-02-19T12:35:08.512Z,100800.56
2024-02-19T12:37:36.048Z,100800.16
2024-02-19T12:40:04.619Z,100789.09
2024-02-19T12:42:32.243Z,100784.44
2024-02-19T12:44:59.554Z,100785.81
2024-02-19T12:47:27.239Z,100779.94
2024-02-19T12:49:54.811Z,100776.69
2024-02-19T12:52:28.793Z,100771.94
2024-02-19T12:54:56.672Z,100775.41
2024-02-19T12:57:24.334Z,100777.31
2024-02-19T12:59:51.798Z,100780.31
2024-02-19T13:02:19.558Z,100777.13
2024-02-19T13:04:48.364Z,100772.81
2024-02-19T13:07:16.572Z,100772.59
2024-02-19T13:09:45.431Z,100765.97
2024-02-19T13:12:15.265Z,100755.69
2024-02-19T13:14:44.631Z,100761.03
2024-02-19T13:17:16.826Z,100768.03
2024-02-19T13:19:49.565Z,100761.84
2024-02-19T13:22:17.206Z,100765.00
2024-02-19T13:24:44.673Z,100758.47
2024-02-19T13:27:13.107Z,100763.50
2024-02-19T13:29:40.523Z,100757.44
2024-02-19T13:32:08.849Z,100758.13
2024-02-19T13:34:37.074Z,100757.88
2024-02-19T13:37:05.228Z,100749.13
2024-02-19T13:39:34.345Z,100752.00
2024-02-19T13:42:01.952Z,100746.75
2024-02-19T13:44:29.305Z,100755.22
2024-02-19T13:46:56.613Z,100754.44
2024-02-19T13:49:24.029Z,100757.28
2024-02-19T13:51:51.526Z,100749.97
2024-02-19T13:54:18.978Z,100752.91
2024-02-19T13:56:46.747Z,100751.44
2024-02-19T13:59:15.709Z,100745.56
2024-02-19T14:01:43.331Z,100750.78
2024-02-19T14:04:10.888Z,100750.78
2024-02-19T14:06:38.745Z,100753.88
2024-02-19T14:09:06.211Z,100746.31
2024-02-19T14:11:34.085Z,100745.66
2024-02-19T14:14:03.143Z,100745.88
2024-02-19T14:16:31.687Z,100744.13
2024-02-19T14:19:00.624Z,100744.50
2024-02-19T14:21:29.600Z,100741.31
2024-02-19T14:23:57.233Z,100749.88
2024-02-19T14:26:25.169Z,100741.81
2024-02-19T14:28:55.642Z,100749.00
2024-02-19T14:31:23.921Z,100748.19
2024-02-19T14:33:52.446Z,100748.50
2024-02-19T14:36:20.925Z,100748.69
2024-02-19T14:38:50.233Z,100737.81
2024-02-19T14:41:17.602Z,100713.09
2024-02-19T14:43:47.726Z,100717.84
2024-02-19T14:46:15.013Z,100737.38
2024-02-19T14:48:43.756Z,100740.69
2024-02-19T14:51:12.360Z,100729.56
2024-02-19T14:53:40.604Z,100732.53
2024-02-19T14:56:09.142Z,100735.44
2024-02-19T14:58:36.467Z,100732.84
2024-02-19T15:01:03.937Z,100729.34
2024-02-19T15:03:31.335Z,100728.56
2024-02-19T15:05:59.046Z,100728.50
2024-02-19T15:08:26.485Z,100734.19
2024-02-19T15:10:53.896Z,100725.84
2024-02-19T15:13:21.299Z,100723.97
2024-02-19T15:15:48.763Z,100728.53
2024-02-19T15:18:16.737Z,100719.88
2024-02-19T15:20:44.624Z,100725.72
2024-02-19T15:23:12.152Z,100727.31
2024-02-19T15:25:41.034Z,100729.72
2024-02-19T15:28:09.140Z,100728.84
2024-02-19T15:30:36.469Z,100726.75
2024-02-19T15:33:03.967Z,100724.88
2024-02-19T15:35:31.456Z,100721.38
2024-02-19T15:37:58.895Z,100712.66
2024-02-19T15:40:26.938Z,100718.63
2024-02-19T15:42:57.713Z,100717.00
2024-02-19T15:45:25.050Z,100711.97
2024-02-19T15:47:52.404Z,100717.63
2024-02-19T15:50:19.937Z,100723.97
2024-02-19T15:52:55.497Z,100726.16
2024-02-19T15:55:29.334Z,100740.50
2024-02-19T15:57:58.240Z,100737.50
2024-02-19T16:00:25.801Z,100736.91
2024-02-19T16:02:53.079Z,100732.34
2024-02-19T16:05:20.441Z,100742.88
2024-02-19T16:07:50.213Z,100746.28
2024-02-19T16:10:17.564Z,100735.63
2024-02-19T16:12:46.312Z,100726.28
2024-02-19T16:15:14.420Z,100734.72
2024-02-19T16:17:41.923Z,100730.56
2024-02-19T16:20:10.040Z,100729.56
2024-02-19T16:22:37.837Z,100731.56
2024-02-19T16:25:08.043Z,100728.38
2024-02-19T16:27:36.821Z,100724.91
2024-02-19T16:30:07.101Z,100725.59
2024-02-19T16:32:36.585Z,100723.63
2024-02-19T16:35:04.387Z,100719.13
2024-02-19T16:37:32.165Z,100723.88
2024-02-19T16:39:59.676Z,100727.34
2024-02-19T16:42:27.016Z,100722.94
2024-02-19T16:44:54.340Z,100722.78
2024-02-19T16:47:21.650Z,100725.59
2024-02-19T16:49:49.010Z,100724.13
2024-02-19T16:52:16.729Z,100725.91
2024-02-19T16:54:44.588Z,100722.44
2024-02-19T16:57:11.975Z,100726.91
2024-02-19T16:59:39.268Z,100710.13
2024-02-19T17:02:06.651Z,100725.75
2024-02-19T17:04:34.121Z,100718.59
2024-02-19T17:07:03.088Z,100711.66
2024-02-19T17:09:33.328Z,100713.03
2024-02-19T17:12:01.051Z,100708.56
2024-02-19T17:14:28.376Z,100719.28
2024-02-19T17:16:58.155Z,100714.44
2024-02-19T17:19:25.756Z,100723.47
2024-02-19T17:21:53.144Z,100720.41
2024-02-19T17:24:20.711Z,100731.56
2024-02-19T17:26:48.490Z,100722.44
2024-02-19T17:29:15.840Z,100720.75
2024-02-19T17:31:46.440Z,100718.28
2024-02-19T17:34:14.634Z,100720.88
2024-02-19T17:36:42.027Z,100697.84
2024-02-19T17:39:09.304Z,100711.66
2024-02-19T17:41:36.568Z,100716.44
2024-02-19T17:44:03.945Z,100721.50
2024-02-19T17:46:31.443Z,100719.75
2024-02-19T17:48:59.063Z,100726.34
2024-02-19T17:51:29.653Z,100721.41
2024-02-19T17:53:59.751Z,100718.78
2024-02-19T17:56:29.561Z,100718.22
2024-02-19T17:58:57.288Z,100712.84
2024-02-19T18:01:26.960Z,100719.00
2024-02-19T18:03:54.944Z,100705.38
2024-02-19T18:06:22.432Z,100710.81
2024-02-19T18:08:52.939Z,100715.63
2024-02-19T18:11:20.475Z,100720.59
2024-02-19T18:13:48.095Z,100713.25
2024-02-19T18:16:15.972Z,100713.00
2024-02-19T18:18:45.876Z,100699.25
2024-02-19T18:21:13.365Z,100709.41
2024-02-19T18:23:40.776Z,100704.25
2024-02-19T18:26:08.445Z,100694.13
2024-02-19T18:28:37.063Z,100696.88
2024-02-19T18:31:13.965Z,100682.78
2024-02-19T18:33:41.281Z,100678.97
2024-02-19T18:36:08.592Z,100677.53
2024-02-19T18:38:38.511Z,100680.09
2024-02-19T18:41:07.031Z,100667.66
2024-02-19T18:43:34.531Z,100678.69
2024-02-19T18:46:02.911Z,100677.28
2024-02-19T18:48:31.667Z,100671.50
2024-02-19T18:50:59.854Z,100694.63
2024-02-19T18:53:27.917Z,100696.31
2024-02-19T18:56:02.495Z,100690.13
2024-02-19T18:58:30.483Z,100693.66
2024-02-19T19:01:01.698Z,100696.63
2024-02-19T19:03:29.315Z,100696.41
2024-02-19T19:06:00.462Z,100709.22
2024-02-19T19:08:27.912Z,100706.91
2024-02-19T19:10:55.264Z,100693.97
2024-02-19T19:13:22.631Z,100696.13
2024-02-19T19:15:50.144Z,100702.13
2024-02-19T19:18:17.794Z,100691.50
2024-02-19T19:20:45.199Z,100680.06
2024-02-19T19:23:12.566Z,100691.13
2024-02-19T19:25:39.921Z,100683.75
2024-02-19T19:28:07.499Z,100679.91
2024-02-19T19:30:34.862Z,100677.84
2024-02-19T19:33:02.250Z,100675.84
2024-02-19T19:35:29.706Z,100672.19
2024-02-19T19:37:58.168Z,100674.72
2024-02-19T19:40:25.595Z,100672.38
2024-02-19T19:42:54.079Z,100680.16
2024-02-19T19:45:22.949Z,100682.31
2024-02-19T19:47:50.482Z,100679.66
2024-02-19T19:50:20.151Z,100695.16
2024-02-19T19:52:47.843Z,100691.72
2024-02-19T19:55:15.322Z,100690.06
2024-02-19T19:57:48.138Z,100697.28
2024-02-19T20:00:16.182Z,100693.50
2024-02-19T20:02:45.653Z,100697.28
2024-02-19T20:05:13.342Z,100695.75
2024-02-19T20:07:41.053Z,100706.22
2024-02-19T20:10:11.662Z,100712.91
2024-02-19T20:12:38.956Z,100716.09
2024-02-19T20:15:07.173Z,100702.28
2024-02-19T20:17:36.214Z,100711.44
2024-02-19T20:20:04.507Z,100712.50
2024-02-19T20:22:32.165Z,100708.19
2024-02-19T20:24:59.591Z,100702.22
2024-02-19T20:27:27.014Z,100705.72
2024-02-19T20:29:54.912Z,100715.69
2024-02-19T20:32:23.355Z,100706.31
2024-02-19T20:34:50.981Z,100709.72
2024-02-19T20:37:18.505Z,100713.97
2024-02-19T20:39:46.367Z,100714.41
2024-02-19T20:42:16.086Z,100713.28
2024-02-19T20:44:46.843Z,100705.19
2024-02-19T20:47:14.415Z,100718.00
2024-02-19T20:49:44.024Z,100708.78
2024-02-19T20:52:11.780Z,100706.69
2024-02-19T20:54:39.145Z,100707.13
2024-02-19T20:57:09.687Z,100712.03
2024-02-19T20:59:37.492Z,100715.44
2024-02-19T21:02:05.158Z,100717.38
2024-02-19T21:04:36.307Z,100703.38
2024-02-19T21:07:07.237Z,100708.94
2024-02-19T21:09:36.490Z,100706.31
2024-02-19T21:12:04.151Z,100713.84
2024-02-19T21:14:31.532Z,100713.84
2024-02-19T21:16:59.452Z,100710.47
2024-02-19T21:19:26.916Z,100726.78
2024-02-19T21:21:54.526Z,100723.28
2024-02-19T21:24:21.982Z,100721.69
2024-02-19T21:26:49.288Z,100729.44
2024-02-19T21:29:16.620Z,100721.41
2024-02-19T21:31:44.008Z,100725.25
2024-02-19T21:34:13.028Z,100728.38
2024-02-19T21:36:40.859Z,100733.13
2024-02-19T21:39:08.342Z,100722.94
2024-02-19T21:41:38.292Z,100718.63
2024-02-19T21:44:08.569Z,100730.59
2024-02-19T21:46:37.493Z,100722.88
2024-02-19T21:49:05.190Z,100722.16
2024-02-19T21:51:32.666Z,100718.06
2024-02-19T21:53:59.956Z,100722.84
2024-02-19T21:56:27.468Z,100725.53
2024-02-19T21:58:54.992Z,100719.69
2024-02-19T22:01:22.763Z,100715.25
2024-02-19T22:03:51.442Z,100717.22
2024-02-19T22:06:18.995Z,100706.06
2024-02-19T22:08:46.349Z,100712.22
2024-02-19T22:11:15.514Z,100709.00
2024-02-19T22:13:42.793Z,100711.59
2024-02-19T22:16:10.188Z,100706.69
2024-02-19T22:18:38.797Z,100709.44
2024-02-19T22:21:06.224Z,100705.22
2024-02-19T22:23:33.477Z,100714.38
2024-02-19T22:26:00.771Z,100707.50
2024-02-19T22:28:32.016Z,100717.91
2024-02-19T22:30:59.553Z,100715.53
2024-02-19T22:33:27.226Z,100716.56
2024-02-19T22:35:54.564Z,100723.59
2024-02-19T22:38:21.828Z,100703.38
2024-02-19T22:40:49.122Z,100722.59
2024-02-19T22:43:16.390Z,100714.09
2024-02-19T22:45:43.677Z,100721.59
2024-02-19T22:48:11.267Z,100722.41
2024-02-19T22:50:38.989Z,100718.94
2024-02-19T22:53:06.408Z,100717.00
2024-02-19T22:55:33.764Z,100720.00
2024-02-19T22:58:01.128Z,100725.34
2024-02-19T23:00:35.749Z,100730.16
2024-02-19T23:03:04.627Z,100729.66
2024-02-19T23:05:32.708Z,100722.75
2024-02-19T23:08:00.580Z,100728.16
2024-02-19T23:10:28.097Z,100737.47
2024-02-19T23:12:55.535Z,100735.63
2024-02-19T23:15:22.911Z,100738.84
2024-02-19T23:17:50.385Z,100743.91
2024-02-19T23:20:17.755Z,100737.81
2024-02-19T23:22:46.473Z,100735.25
2024-02-19T23:25:14.227Z,100739.72
2024-02-19T23:27:41.717Z,100733.63
2024-02-19T23:30:09.342Z,100734.72
2024-02-19T23:32:37.238Z,100733.94
2024-02-19T23:35:06.463Z,100729.41
2024-02-19T23:37:34.104Z,100732.09
2024-02-19T23:40:01.716Z,100737.44
2024-02-19T23:42:29.210Z,100740.91
2024-02-19T23:44:56.494Z,100743.31
2024-02-19T23:47:23.930Z,100742.31
2024-02-19T23:49:51.284Z,100738.28
2024-02-19T23:52:18.693Z,100734.03
2024-02-19T23:54:46.040Z,100741.75
2024-02-19T23:57:13.366Z,100734.31
2024-02-19T23:59:40.719Z,100741.75
